Time;durP1;ratioP1;P1;durP2;ratioP2;P2;SDS_P1;SDS_P2;PMS_P1;PMS_P2;Temp;Humidity;BMP_temperature;BMP_pressure;BME280_temperature;BME280_humidity;BME280_pressure;Samples;Min_cycle;Max_cycle;Signal;HPM_P1;HPM_P2
2022/10/20 00:01:03;;;;;;;20.98;8.70;;;;;;;;;;5053648;27;20052;-69
2022/10/20 00:03:30;;;;;;;16.55;9.10;;;;;;;;;;5076145;27;20031;-70
2022/10/20 00:06:05;;;;;;;23.67;9.20;;;;;;;;;;5053489;27;20044;-66
2022/10/20 00:08:32;;;;;;;27.25;9.70;;;;;;;;;;5054506;27;20086;-67
2022/10/20 00:10:59;;;;;;;25.58;8.50;;;;;;;;;;5054654;27;20033;-68
2022/10/20 00:13:25;;;;;;;22.60;9.48;;;;;;;;;;5051274;28;20048;-68
2022/10/20 00:15:53;;;;;;;20.45;8.77;;;;;;;;;;5051198;28;20131;-69
2022/10/20 00:18:20;;;;;;;25.90;8.32;;;;;;;;;;5050182;27;20044;-70
2022/10/20 00:20:47;;;;;;;17.95;8.80;;;;;;;;;;5053959;27;20411;-69
2022/10/20 00:23:14;;;;;;;19.60;8.30;;;;;;;;;;5054254;28;20047;-70
2022/10/20 00:25:40;;;;;;;14.73;8.50;;;;;;;;;;5047347;27;20051;-69
2022/10/20 00:28:07;;;;;;;17.40;8.98;;;;;;;;;;5080758;27;20123;-70
2022/10/20 00:30:34;;;;;;;18.73;9.68;;;;;;;;;;5054605;27;20037;-70
2022/10/20 00:33:01;;;;;;;18.27;9.25;;;;;;;;;;5055824;28;20448;-68
2022/10/20 00:35:28;;;;;;;17.23;10.23;;;;;;;;;;5058507;27;20131;-70
2022/10/20 00:37:55;;;;;;;17.35;9.15;;;;;;;;;;5054271;28;20205;-69
2022/10/20 00:40:21;;;;;;;16.15;9.05;;;;;;;;;;5052907;28;20039;-69
2022/10/20 00:42:48;;;;;;;18.77;9.63;;;;;;;;;;5052736;28;20493;-69
2022/10/20 00:45:17;;;;;;;19.65;9.57;;;;;;;;;;5053481;27;20044;-72
2022/10/20 00:47:47;;;;;;;18.35;8.73;;;;;;;;;;5060989;28;20054;-70
2022/10/20 00:50:16;;;;;;;18.15;8.45;;;;;;;;;;5053300;28;20032;-69
2022/10/20 00:52:44;;;;;;;18.48;8.65;;;;;;;;;;5047765;28;20052;-69
2022/10/20 00:55:11;;;;;;;16.90;9.15;;;;;;;;;;5051743;28;20158;-68
2022/10/20 00:57:38;;;;;;;16.00;8.93;;;;;;;;;;5051346;28;20044;-68
2022/10/20 01:00:25;;;;;;;20.88;9.63;;;;;;;;;;5063414;28;20792;-69
2022/10/20 01:02:52;;;;;;;24.35;9.77;;;;;;;;;;5078264;28;20056;-68
2022/10/20 01:05:19;;;;;;;26.40;9.73;;;;;;;;;;5071767;28;20115;-67
2022/10/20 01:07:46;;;;;;;19.70;9.73;;;;;;;;;;5070222;28;20036;-67
2022/10/20 01:10:13;;;;;;;24.83;10.07;;;;;;;;;;5071085;28;20032;-69
2022/10/20 01:13:02;;;;;;;18.98;9.18;;;;;;;;;;5073851;28;20040;-70
2022/10/20 01:15:48;;;;;;;20.13;10.07;;;;;;;;;;5048129;28;20056;-70
2022/10/20 01:18:30;;;;;;;28.15;9.27;;;;;;;;;;5069801;28;20551;-70
2022/10/20 01:21:08;;;;;;;18.83;9.00;;;;;;;;;;5056411;28;20067;-70
2022/10/20 01:23:38;;;;;;;20.48;8.75;;;;;;;;;;5074428;28;20094;-70
2022/10/20 01:26:13;;;;;;;20.05;9.13;;;;;;;;;;5073198;28;22032;-69
2022/10/20 01:28:48;;;;;;;17.02;8.23;;;;;;;;;;5071740;28;20044;-70
2022/10/20 01:31:37;;;;;;;15.77;8.60;;;;;;;;;;5068394;27;20035;-70
2022/10/20 01:34:10;;;;;;;17.58;8.50;;;;;;;;;;5058534;27;20040;-70
2022/10/20 01:36:36;;;;;;;;;;;;;;;;;;5056640;28;20032;-68
2022/10/20 01:39:07;;;;;;;20.08;9.60;;;;;;;;;;5056112;28;20003;-69
2022/10/20 01:41:46;;;;;;;26.45;9.25;;;;;;;;;;5054655;27;20384;-71
2022/10/20 01:44:17;;;;;;;21.45;10.23;;;;;;;;;;5057355;27;20132;-71
2022/10/20 01:46:45;;;;;;;28.45;10.32;;;;;;;;;;5046688;28;20037;-69
2022/10/20 01:49:12;;;;;;;24.13;10.52;;;;;;;;;;5055262;27;20069;-70
2022/10/20 01:51:39;;;;;;;21.10;10.13;;;;;;;;;;5053034;27;20061;-70
2022/10/20 01:54:06;;;;;;;21.58;9.68;;;;;;;;;;5055245;28;20127;-69
2022/10/20 01:56:45;;;;;;;25.05;9.23;;;;;;;;;;5055428;28;20056;-68
2022/10/20 01:59:12;;;;;;;16.90;8.75;;;;;;;;;;5054418;28;20036;-68
2022/10/20 02:01:50;;;;;;;18.48;9.20;;;;;;;;;;5053854;28;20037;-68
2022/10/20 02:04:19;;;;;;;24.40;9.73;;;;;;;;;;5055268;28;20073;-68
2022/10/20 02:06:55;;;;;;;21.77;9.75;;;;;;;;;;5045359;28;20040;-69
2022/10/20 02:09:41;;;;;;;23.73;10.10;;;;;;;;;;5054858;27;20039;-69
2022/10/20 02:12:09;;;;;;;25.33;9.68;;;;;;;;;;5055121;28;20502;-69
2022/10/20 02:14:37;;;;;;;36.00;10.30;;;;;;;;;;5055372;28;20044;-71
2022/10/20 02:17:07;;;;;;;29.00;10.82;;;;;;;;;;5055502;28;20589;-71
2022/10/20 02:19:36;;;;;;;26.52;10.77;;;;;;;;;;5052631;28;20057;-71
2022/10/20 02:22:03;;;;;;;18.55;9.00;;;;;;;;;;5063820;28;20421;-68
2022/10/20 02:24:33;;;;;;;26.25;10.35;;;;;;;;;;5053157;27;20048;-68
2022/10/20 02:27:02;;;;;;;23.75;9.80;;;;;;;;;;5053352;28;20040;-68
2022/10/20 02:29:31;;;;;;;23.55;10.05;;;;;;;;;;5055867;28;20085;-69
2022/10/20 02:31:58;;;;;;;23.52;9.93;;;;;;;;;;5055076;28;20036;-70
2022/10/20 02:34:28;;;;;;;26.60;10.20;;;;;;;;;;5053487;28;20082;-68
2022/10/20 02:36:58;;;;;;;22.70;9.77;;;;;;;;;;5055517;28;20041;-69
2022/10/20 02:39:25;;;;;;;27.77;10.10;;;;;;;;;;5054654;27;20033;-68
2022/10/20 02:41:51;;;;;;;21.40;9.70;;;;;;;;;;5056305;27;20033;-68
2022/10/20 02:44:18;;;;;;;21.08;10.23;;;;;;;;;;5054154;28;20408;-68
2022/10/20 02:46:45;;;;;;;31.13;10.88;;;;;;;;;;5054883;28;20055;-69
2022/10/20 02:49:11;;;;;;;24.02;10.63;;;;;;;;;;5056594;27;20854;-68
2022/10/20 02:51:38;;;;;;;25.98;11.05;;;;;;;;;;5054672;28;20147;-69
2022/10/20 02:54:04;;;;;;;26.05;10.65;;;;;;;;;;5055197;27;20037;-69
2022/10/20 02:56:31;;;;;;;27.42;10.98;;;;;;;;;;5053452;28;20403;-69
2022/10/20 02:58:58;;;;;;;27.65;10.30;;;;;;;;;;5054220;28;20045;-69
2022/10/20 03:01:24;;;;;;;23.80;11.18;;;;;;;;;;5053159;27;20464;-69
2022/10/20 03:03:54;;;;;;;26.23;10.40;;;;;;;;;;5054913;28;20040;-68
2022/10/20 03:06:21;;;;;;;26.63;10.52;;;;;;;;;;5054478;27;20078;-69
2022/10/20 03:08:47;;;;;;;23.90;10.90;;;;;;;;;;5055613;28;20047;-68
2022/10/20 03:11:14;;;;;;;30.23;10.85;;;;;;;;;;5055039;28;20063;-68
2022/10/20 03:13:41;;;;;;;25.38;10.90;;;;;;;;;;5053031;28;20156;-69
2022/10/20 03:16:07;;;;;;;25.42;10.23;;;;;;;;;;5055791;28;20032;-69
2022/10/20 03:18:34;;;;;;;31.77;11.05;;;;;;;;;;5053353;28;20029;-68
2022/10/20 03:21:01;;;;;;;31.42;10.05;;;;;;;;;;5055101;28;20111;-69
2022/10/20 03:23:27;;;;;;;37.05;11.30;;;;;;;;;;5069087;28;20504;-70
2022/10/20 03:26:00;;;;;;;28.02;10.55;;;;;;;;;;5055810;28;20090;-70
2022/10/20 03:28:27;;;;;;;36.45;12.40;;;;;;;;;;5056741;27;20485;-69
2022/10/20 03:30:53;;;;;;;25.35;11.23;;;;;;;;;;5054538;28;20085;-69
2022/10/20 03:33:20;;;;;;;30.80;10.85;;;;;;;;;;5055047;27;20040;-68
2022/10/20 03:35:46;;;;;;;28.75;11.15;;;;;;;;;;5053313;28;20121;-69
2022/10/20 03:38:13;;;;;;;33.05;11.45;;;;;;;;;;5056118;27;20037;-68
2022/10/20 03:40:40;;;;;;;25.80;9.82;;;;;;;;;;5054082;27;20028;-69
2022/10/20 03:43:06;;;;;;;23.00;10.70;;;;;;;;;;5054933;28;20045;-68
2022/10/20 03:45:33;;;;;;;24.60;9.98;;;;;;;;;;5055073;27;20117;-68
2022/10/20 03:47:59;;;;;;;25.80;10.00;;;;;;;;;;5055088;28;20809;-68
2022/10/20 03:50:26;;;;;;;19.38;9.35;;;;;;;;;;5055327;28;20032;-67
2022/10/20 03:52:52;;;;;;;19.27;9.55;;;;;;;;;;5054704;28;20048;-69
2022/10/20 03:55:19;;;;;;;24.90;11.15;;;;;;;;;;5055039;27;20036;-70
2022/10/20 03:57:46;;;;;;;23.42;9.52;;;;;;;;;;5053424;28;20139;-69
2022/10/20 04:00:13;;;;;;;24.02;10.35;;;;;;;;;;5055096;28;20128;-69
2022/10/20 04:02:44;;;;;;;22.80;9.82;;;;;;;;;;5052492;28;20048;-68
2022/10/20 04:05:12;;;;;;;23.27;10.23;;;;;;;;;;5054295;28;20070;-68
2022/10/20 04:07:39;;;;;;;21.67;10.10;;;;;;;;;;5053488;28;20029;-68
2022/10/20 04:10:06;;;;;;;20.38;9.65;;;;;;;;;;5054926;28;20033;-69
2022/10/20 04:12:32;;;;;;;24.33;10.23;;;;;;;;;;5054856;28;20123;-70
2022/10/20 04:14:59;;;;;;;23.88;10.18;;;;;;;;;;5056293;27;20048;-70
2022/10/20 04:17:45;;;;;;;21.25;10.48;;;;;;;;;;5081943;27;20127;-70
2022/10/20 04:20:12;;;;;;;19.67;9.80;;;;;;;;;;5081789;27;20119;-69
2022/10/20 04:22:39;;;;;;;30.45;11.02;;;;;;;;;;5072420;27;20039;-69
2022/10/20 04:25:06;;;;;;;20.60;9.75;;;;;;;;;;5081093;27;20119;-69
2022/10/20 04:27:33;;;;;;;21.20;9.98;;;;;;;;;;5081439;27;20046;-70
2022/10/20 04:29:59;;;;;;;20.10;10.38;;;;;;;;;;5082165;28;20051;-69
2022/10/20 04:32:26;;;;;;;21.27;9.93;;;;;;;;;;5081299;27;20067;-71
2022/10/20 04:34:52;;;;;;;20.08;9.82;;;;;;;;;;5080416;28;20547;-71
2022/10/20 04:37:19;;;;;;;21.17;10.43;;;;;;;;;;5082381;27;20406;-69
2022/10/20 04:39:46;;;;;;;18.67;10.30;;;;;;;;;;5081397;27;20129;-70
2022/10/20 04:42:12;;;;;;;18.45;10.13;;;;;;;;;;5083329;27;20054;-71
2022/10/20 04:44:39;;;;;;;19.85;10.30;;;;;;;;;;5084831;28;20047;-69
2022/10/20 04:47:05;;;;;;;21.38;10.30;;;;;;;;;;5086354;27;20040;-69
2022/10/20 04:49:32;;;;;;;24.02;9.95;;;;;;;;;;5084435;27;20053;-69
2022/10/20 04:51:58;;;;;;;27.45;10.65;;;;;;;;;;5086918;27;20117;-69
2022/10/20 04:54:25;;;;;;;18.52;9.82;;;;;;;;;;5080194;27;20489;-69
2022/10/20 04:56:52;;;;;;;15.93;9.60;;;;;;;;;;5058473;28;20150;-70
2022/10/20 04:59:18;;;;;;;18.60;10.02;;;;;;;;;;5056864;28;20036;-70
2022/10/20 05:01:45;;;;;;;21.67;10.57;;;;;;;;;;5057835;28;20045;-70
2022/10/20 05:04:11;;;;;;;20.50;10.18;;;;;;;;;;5054940;28;20050;-70
2022/10/20 05:06:38;;;;;;;18.15;10.38;;;;;;;;;;5054706;28;20178;-69
2022/10/20 05:09:06;;;;;;;18.95;9.98;;;;;;;;;;5056109;28;20040;-69
2022/10/20 05:11:34;;;;;;;20.67;9.90;;;;;;;;;;5057446;27;20042;-70
2022/10/20 05:14:01;;;;;;;18.08;9.75;;;;;;;;;;5056489;28;20047;-70
2022/10/20 05:16:27;;;;;;;18.15;9.70;;;;;;;;;;5056936;27;20508;-69
2022/10/20 05:18:56;;;;;;;20.67;10.73;;;;;;;;;;5056890;28;20410;-69
2022/10/20 05:21:24;;;;;;;18.35;10.50;;;;;;;;;;5054705;28;20032;-68
2022/10/20 05:23:58;;;;;;;20.17;10.00;;;;;;;;;;5056304;27;20032;-68
2022/10/20 05:26:27;;;;;;;19.25;9.43;;;;;;;;;;5054567;27;20137;-70
2022/10/20 05:28:53;;;;;;;19.88;9.70;;;;;;;;;;5057947;27;20040;-70
2022/10/20 05:31:21;;;;;;;21.55;10.82;;;;;;;;;;5056657;27;20513;-69
2022/10/20 05:33:49;;;;;;;18.10;9.80;;;;;;;;;;5055193;28;20036;-67
2022/10/20 05:36:18;;;;;;;20.63;10.18;;;;;;;;;;5054289;27;20039;-69
2022/10/20 05:38:45;;;;;;;19.63;10.43;;;;;;;;;;5054818;28;20028;-68
2022/10/20 05:41:13;;;;;;;20.70;10.10;;;;;;;;;;5054652;28;20043;-69
2022/10/20 05:43:40;;;;;;;21.73;11.00;;;;;;;;;;5053363;28;20084;-68
2022/10/20 05:46:06;;;;;;;20.80;9.40;;;;;;;;;;5055181;27;20128;-68
2022/10/20 05:48:33;;;;;;;19.17;9.98;;;;;;;;;;5054134;27;20151;-68
2022/10/20 05:51:16;;;;;;;21.23;10.55;;;;;;;;;;5055320;27;20041;-69
2022/10/20 05:53:44;;;;;;;22.38;9.93;;;;;;;;;;5052652;27;20044;-69
2022/10/20 05:56:11;;;;;;;18.27;9.73;;;;;;;;;;5055466;28;20040;-70
2022/10/20 05:58:38;;;;;;;16.75;10.15;;;;;;;;;;5054304;27;20081;-68
2022/10/20 06:01:09;;;;;;;16.55;9.75;;;;;;;;;;5055279;27;20032;-69
2022/10/20 06:03:35;;;;;;;20.50;10.00;;;;;;;;;;5056060;27;20039;-69
2022/10/20 06:06:02;;;;;;;16.58;10.18;;;;;;;;;;5055336;27;20029;-68
2022/10/20 06:08:32;;;;;;;21.25;10.68;;;;;;;;;;5052060;28;20491;-68
2022/10/20 06:11:03;;;;;;;28.80;10.68;;;;;;;;;;5056282;28;20032;-68
2022/10/20 06:13:31;;;;;;;17.27;10.25;;;;;;;;;;5054616;28;20037;-69
2022/10/20 06:16:08;;;;;;;17.27;9.98;;;;;;;;;;5056560;27;20542;-68
2022/10/20 06:18:37;;;;;;;17.92;9.95;;;;;;;;;;5054922;27;20039;-68
2022/10/20 06:21:07;;;;;;;18.80;10.18;;;;;;;;;;5055249;28;20048;-68
2022/10/20 06:23:34;;;;;;;21.70;10.48;;;;;;;;;;5054296;28;20044;-68
2022/10/20 06:26:19;;;;;;;23.33;10.88;;;;;;;;;;5056580;27;20034;-68
2022/10/20 06:28:47;;;;;;;18.42;10.32;;;;;;;;;;5054295;28;20133;-68
2022/10/20 06:31:24;;;;;;;23.17;10.77;;;;;;;;;;5058031;28;20050;-70
2022/10/20 06:33:51;;;;;;;22.85;10.98;;;;;;;;;;5054087;28;20405;-68
2022/10/20 06:36:18;;;;;;;23.58;10.90;;;;;;;;;;5056756;28;20083;-69
2022/10/20 06:38:45;;;;;;;18.65;11.00;;;;;;;;;;5056989;28;20045;-70
2022/10/20 06:41:13;;;;;;;23.85;10.55;;;;;;;;;;5057997;28;20040;-69
2022/10/20 06:43:40;;;;;;;24.77;10.52;;;;;;;;;;5055238;28;20039;-69
2022/10/20 06:46:08;;;;;;;22.08;10.27;;;;;;;;;;5055927;28;20040;-69
2022/10/20 06:48:35;;;;;;;20.30;9.77;;;;;;;;;;5060099;28;20460;-69
2022/10/20 06:51:03;;;;;;;22.15;10.40;;;;;;;;;;5054785;28;20486;-67
2022/10/20 06:53:30;;;;;;;27.00;10.63;;;;;;;;;;5054500;28;20066;-70
2022/10/20 06:55:57;;;;;;;19.13;10.95;;;;;;;;;;5054860;28;20312;-67
2022/10/20 06:58:24;;;;;;;20.90;10.57;;;;;;;;;;5053452;28;20048;-68
2022/10/20 07:00:58;;;;;;;19.80;9.93;;;;;;;;;;5054400;28;20123;-68
2022/10/20 07:03:25;;;;;;;20.88;10.25;;;;;;;;;;5055870;28;20076;-70
2022/10/20 07:05:52;;;;;;;23.10;11.00;;;;;;;;;;5054620;28;20132;-68
2022/10/20 07:08:18;;;;;;;17.63;10.50;;;;;;;;;;5055869;28;20091;-69
2022/10/20 07:10:45;;;;;;;21.83;11.10;;;;;;;;;;5055507;28;20028;-68
2022/10/20 07:13:11;;;;;;;20.65;10.60;;;;;;;;;;5056101;28;20118;-68
2022/10/20 07:15:38;;;;;;;24.55;11.32;;;;;;;;;;5054148;28;20618;-68
2022/10/20 07:18:04;;;;;;;21.70;10.38;;;;;;;;;;5053283;28;20044;-68
2022/10/20 07:20:31;;;;;;;19.50;10.10;;;;;;;;;;5053635;28;20040;-69
2022/10/20 07:22:58;;;;;;;19.95;9.70;;;;;;;;;;5055515;28;20044;-68
2022/10/20 07:25:24;;;;;;;20.52;10.30;;;;;;;;;;5084472;27;20029;-68
2022/10/20 07:27:51;;;;;;;18.70;9.45;;;;;;;;;;5054085;28;20040;-67
2022/10/20 07:30:17;;;;;;;20.15;9.50;;;;;;;;;;5053304;28;20036;-69
2022/10/20 07:32:44;;;;;;;19.80;10.32;;;;;;;;;;5054110;28;20392;-68
2022/10/20 07:35:11;;;;;;;21.60;10.15;;;;;;;;;;5053024;28;20071;-69
2022/10/20 07:37:37;;;;;;;18.58;10.02;;;;;;;;;;5064222;27;20044;-69
2022/10/20 07:40:04;;;;;;;18.67;9.63;;;;;;;;;;5060876;28;20920;-67
2022/10/20 07:42:31;;;;;;;21.75;10.48;;;;;;;;;;5055199;28;20068;-69
2022/10/20 07:44:57;;;;;;;16.95;9.43;;;;;;;;;;5054553;28;20105;-69
2022/10/20 07:47:25;;;;;;;20.95;10.38;;;;;;;;;;5054555;28;20086;-70
2022/10/20 07:49:51;;;;;;;17.67;10.02;;;;;;;;;;5054524;28;20044;-69
2022/10/20 07:52:18;;;;;;;23.15;10.18;;;;;;;;;;5054674;28;20140;-70
2022/10/20 07:54:44;;;;;;;19.83;9.95;;;;;;;;;;5053154;28;20710;-69
2022/10/20 07:57:11;;;;;;;18.95;10.07;;;;;;;;;;5054276;28;20040;-68
2022/10/20 07:59:38;;;;;;;19.20;9.88;;;;;;;;;;5051879;28;20036;-69
2022/10/20 08:02:04;;;;;;;17.75;9.85;;;;;;;;;;5054969;28;20032;-68
2022/10/20 08:04:31;;;;;;;19.60;9.77;;;;;;;;;;5052907;28;20049;-68
2022/10/20 08:06:58;;;;;;;17.63;10.13;;;;;;;;;;5052889;28;20078;-70
2022/10/20 08:09:25;;;;;;;19.20;9.98;;;;;;;;;;5052226;28;20036;-69
2022/10/20 08:11:52;;;;;;;18.40;9.80;;;;;;;;;;5052908;28;20037;-68
2022/10/20 08:14:18;;;;;;;19.67;9.77;;;;;;;;;;5052364;28;20044;-73
2022/10/20 08:16:45;;;;;;;19.60;9.73;;;;;;;;;;5054270;28;20092;-69
2022/10/20 08:19:11;;;;;;;19.65;9.50;;;;;;;;;;5053814;28;20494;-68
2022/10/20 08:21:38;;;;;;;19.23;9.75;;;;;;;;;;5049929;28;21592;-69
2022/10/20 08:24:05;;;;;;;20.10;9.65;;;;;;;;;;5084447;28;20094;-69
2022/10/20 08:26:31;;;;;;;17.73;10.15;;;;;;;;;;5053173;28;20040;-68
2022/10/20 08:28:58;;;;;;;17.38;9.57;;;;;;;;;;5061054;28;20076;-68
2022/10/20 08:31:24;;;;;;;20.80;9.25;;;;;;;;;;5054353;28;20940;-70
2022/10/20 08:33:51;;;;;;;23.83;10.70;;;;;;;;;;5051381;28;20041;-67
2022/10/20 08:36:18;;;;;;;19.85;10.02;;;;;;;;;;5052644;28;20032;-69
2022/10/20 08:38:44;;;;;;;18.20;9.55;;;;;;;;;;5052489;28;20105;-68
2022/10/20 08:41:21;;;;;;;18.60;10.07;;;;;;;;;;5051371;28;20044;-69
2022/10/20 08:43:49;;;;;;;16.98;9.18;;;;;;;;;;5051746;28;20032;-69
2022/10/20 08:46:17;;;;;;;22.50;9.95;;;;;;;;;;5060388;28;20051;-69
2022/10/20 08:48:44;;;;;;;18.98;9.82;;;;;;;;;;5051935;28;20561;-69
2022/10/20 08:51:31;;;;;;;21.52;9.82;;;;;;;;;;5053027;28;20036;-68
2022/10/20 08:53:59;;;;;;;19.25;9.73;;;;;;;;;;5050909;28;20664;-68
2022/10/20 08:56:28;;;;;;;21.10;10.00;;;;;;;;;;5051724;28;20026;-69
2022/10/20 08:58:55;;;;;;;21.30;10.15;;;;;;;;;;5059977;28;20470;-69
2022/10/20 09:01:23;;;;;;;20.30;9.95;;;;;;;;;;5053412;28;20477;-68
2022/10/20 09:03:53;;;;;;;21.20;9.55;;;;;;;;;;5052114;28;20052;-68
2022/10/20 09:06:20;;;;;;;21.48;10.13;;;;;;;;;;5052786;28;20124;-69
2022/10/20 09:08:47;;;;;;;17.42;9.93;;;;;;;;;;5055400;28;20063;-67
2022/10/20 09:11:16;;;;;;;22.85;10.23;;;;;;;;;;5052891;28;20037;-70
2022/10/20 09:13:42;;;;;;;19.25;9.85;;;;;;;;;;5051903;28;20041;-68
2022/10/20 09:16:15;;;;;;;18.45;9.65;;;;;;;;;;5088225;28;20558;-69
2022/10/20 09:18:42;;;;;;;20.42;9.48;;;;;;;;;;5054478;28;21000;-69
2022/10/20 09:21:14;;;;;;;17.83;9.70;;;;;;;;;;5054754;28;20450;-67
2022/10/20 09:23:42;;;;;;;17.20;9.30;;;;;;;;;;5082450;28;20036;-68
2022/10/20 09:26:34;;;;;;;17.80;9.70;;;;;;;;;;5053383;28;20121;-67
2022/10/20 09:29:12;;;;;;;20.23;9.70;;;;;;;;;;5048186;28;20041;-68
2022/10/20 09:31:43;;;;;;;13.82;8.32;;;;;;;;;;5086830;27;20048;-70
2022/10/20 09:34:20;;;;;;;17.52;8.75;;;;;;;;;;5057442;28;20041;-69
2022/10/20 09:36:48;;;;;;;16.38;8.10;;;;;;;;;;5089577;27;20655;-67
2022/10/20 09:39:22;;;;;;;15.77;8.20;;;;;;;;;;5057791;28;20045;-68
2022/10/20 09:41:49;;;;;;;15.60;7.90;;;;;;;;;;5088232;27;20505;-69
2022/10/20 09:44:23;;;;;;;14.70;8.20;;;;;;;;;;5055681;28;20489;-69
2022/10/20 09:46:51;;;;;;;17.23;8.20;;;;;;;;;;5055204;28;20047;-67
2022/10/20 09:49:27;;;;;;;14.93;7.85;;;;;;;;;;5056519;28;20040;-68
2022/10/20 09:51:53;;;;;;;14.50;7.43;;;;;;;;;;5055271;28;20068;-68
2022/10/20 09:54:22;;;;;;;19.02;8.32;;;;;;;;;;5056918;28;20837;-68
2022/10/20 09:56:49;;;;;;;19.45;8.85;;;;;;;;;;5056655;28;20516;-67
2022/10/20 09:59:23;;;;;;;18.00;8.00;;;;;;;;;;5055313;28;20032;-68
2022/10/20 10:01:58;;;;;;;16.40;8.07;;;;;;;;;;5031811;28;20073;-67
2022/10/20 10:04:32;;;;;;;16.38;7.80;;;;;;;;;;5027372;28;20049;-69
2022/10/20 10:06:59;;;;;;;13.50;7.68;;;;;;;;;;5028782;28;20051;-68
2022/10/20 10:09:33;;;;;;;18.42;7.80;;;;;;;;;;5026605;28;20480;-68
2022/10/20 10:12:00;;;;;;;18.20;8.55;;;;;;;;;;5034733;28;20049;-69
2022/10/20 10:14:28;;;;;;;15.57;7.78;;;;;;;;;;5042502;27;20048;-67
2022/10/20 10:16:54;;;;;;;15.18;8.02;;;;;;;;;;5055879;28;20040;-69
2022/10/20 10:19:24;;;;;;;12.85;7.43;;;;;;;;;;5056833;27;20465;-68
2022/10/20 10:21:55;;;;;;;14.15;7.45;;;;;;;;;;5052907;28;20036;-68
2022/10/20 10:24:30;;;;;;;15.25;7.53;;;;;;;;;;5054499;27;20400;-67
2022/10/20 10:26:57;;;;;;;15.63;7.82;;;;;;;;;;5053723;28;20072;-67
2022/10/20 10:29:29;;;;;;;14.20;7.22;;;;;;;;;;5054536;28;20475;-69
2022/10/20 10:31:58;;;;;;;11.95;6.63;;;;;;;;;;5055267;28;20746;-68
2022/10/20 10:34:27;;;;;;;12.40;6.82;;;;;;;;;;5054510;28;21250;-69
2022/10/20 10:36:54;;;;;;;14.77;7.05;;;;;;;;;;5054928;28;20032;-68
2022/10/20 10:39:20;;;;;;;16.25;7.50;;;;;;;;;;5055196;28;20060;-68
2022/10/20 10:41:47;;;;;;;16.00;7.07;;;;;;;;;;5054730;28;20048;-67
2022/10/20 10:44:23;;;;;;;12.52;6.97;;;;;;;;;;5053981;27;20035;-68
2022/10/20 10:47:04;;;;;;;18.70;7.10;;;;;;;;;;5055408;28;20047;-69
2022/10/20 10:49:31;;;;;;;14.23;7.15;;;;;;;;;;5054180;27;20037;-66
2022/10/20 10:52:25;;;;;;;13.75;6.90;;;;;;;;;;5055978;28;20044;-68
2022/10/20 10:55:10;;;;;;;11.30;6.43;;;;;;;;;;5055177;28;20048;-68
2022/10/20 10:57:46;;;;;;;13.63;6.95;;;;;;;;;;5072316;27;20519;-69
2022/10/20 11:00:19;;;;;;;15.52;7.13;;;;;;;;;;5061156;28;20527;-69
2022/10/20 11:02:45;;;;;;;17.75;7.40;;;;;;;;;;5053212;28;20272;-68
2022/10/20 11:05:18;;;;;;;11.93;6.50;;;;;;;;;;5054422;27;20055;-68
2022/10/20 11:07:47;;;;;;;15.40;6.97;;;;;;;;;;5060230;28;20124;-68
2022/10/20 11:10:19;;;;;;;12.57;6.32;;;;;;;;;;5062844;28;20037;-68
2022/10/20 11:12:52;;;;;;;15.20;7.07;;;;;;;;;;5052740;28;20197;-69
2022/10/20 11:15:37;;;;;;;13.45;6.53;;;;;;;;;;5054690;28;20121;-68
2022/10/20 11:18:33;;;;;;;13.55;7.05;;;;;;;;;;5051952;28;20392;-69
2022/10/20 11:21:18;;;;;;;15.70;7.13;;;;;;;;;;5044462;28;20647;-68
2022/10/20 11:24:11;;;;;;;15.45;6.65;;;;;;;;;;5053875;28;20048;-69
2022/10/20 11:26:40;;;;;;;15.30;6.97;;;;;;;;;;5050968;28;20098;-67
2022/10/20 11:29:28;;;;;;;12.57;6.07;;;;;;;;;;5054002;28;20055;-68
2022/10/20 11:32:08;;;;;;;14.93;7.07;;;;;;;;;;5052740;27;20037;-67
2022/10/20 11:34:43;;;;;;;14.25;7.07;;;;;;;;;;5054600;28;20048;-67
2022/10/20 11:37:17;;;;;;;19.20;7.28;;;;;;;;;;5059940;28;20039;-68
2022/10/20 11:40:06;;;;;;;13.88;7.13;;;;;;;;;;5054993;28;20040;-66
2022/10/20 11:42:42;;;;;;;14.35;6.70;;;;;;;;;;5052292;27;20097;-69
2022/10/20 11:45:25;;;;;;;14.18;7.60;;;;;;;;;;5062871;28;20051;-69
2022/10/20 11:47:56;;;;;;;16.95;7.30;;;;;;;;;;5054187;27;20106;-68
2022/10/20 11:50:23;;;;;;;20.05;7.68;;;;;;;;;;5051690;28;20503;-68
2022/10/20 11:52:54;;;;;;;21.85;8.00;;;;;;;;;;5051417;28;20552;-67
2022/10/20 11:55:39;;;;;;;16.42;7.35;;;;;;;;;;5054620;28;20044;-68
2022/10/20 11:58:06;;;;;;;20.48;7.22;;;;;;;;;;5053954;28;20040;-68
2022/10/20 12:01:01;;;;;;;20.77;7.63;;;;;;;;;;5051022;28;20219;-69
2022/10/20 12:03:40;;;;;;;17.88;7.22;;;;;;;;;;5017276;28;20045;-70
2022/10/20 12:06:13;;;;;;;15.85;7.65;;;;;;;;;;5052387;28;20090;-68
2022/10/20 12:08:54;;;;;;;15.57;7.93;;;;;;;;;;5053696;27;20063;-67
2022/10/20 12:11:29;;;;;;;14.57;7.32;;;;;;;;;;5068949;27;20438;-68
2022/10/20 12:14:11;;;;;;;19.38;7.50;;;;;;;;;;5066400;27;20072;-67
2022/10/20 12:16:53;;;;;;;15.07;7.70;;;;;;;;;;5052574;27;20033;-67
2022/10/20 12:19:21;;;;;;;20.17;7.85;;;;;;;;;;5056812;28;20374;-66
2022/10/20 12:22:06;;;;;;;18.52;7.20;;;;;;;;;;5070956;27;20032;-71
2022/10/20 12:24:32;;;;;;;13.60;7.38;;;;;;;;;;5059916;28;20076;-70
2022/10/20 12:27:02;;;;;;;15.27;7.25;;;;;;;;;;5071824;28;20856;-68
2022/10/20 12:29:31;;;;;;;18.33;6.90;;;;;;;;;;5054279;27;20036;-69
2022/10/20 12:32:19;;;;;;;16.15;7.50;;;;;;;;;;5068369;27;20095;-67
2022/10/20 12:34:47;;;;;;;21.48;8.00;;;;;;;;;;5053981;28;20361;-68
2022/10/20 12:37:40;;;;;;;17.90;7.32;;;;;;;;;;5054131;27;20068;-69
2022/10/20 12:40:06;;;;;;;19.30;7.37;;;;;;;;;;5082338;28;20382;-70
2022/10/20 12:42:36;;;;;;;18.13;7.78;;;;;;;;;;5051234;27;20174;-67
2022/10/20 12:45:06;;;;;;;15.23;7.57;;;;;;;;;;5050685;27;20045;-67
2022/10/20 12:47:34;;;;;;;13.88;6.57;;;;;;;;;;5051335;28;20116;-68
2022/10/20 12:50:07;;;;;;;18.20;7.25;;;;;;;;;;5053098;28;20120;-67
2022/10/20 12:52:35;;;;;;;19.17;7.85;;;;;;;;;;5051232;27;20037;-68
2022/10/20 12:55:05;;;;;;;17.60;7.75;;;;;;;;;;5054474;28;20044;-67
2022/10/20 12:57:35;;;;;;;18.05;7.45;;;;;;;;;;5051231;28;20045;-68
2022/10/20 13:00:02;;;;;;;19.83;7.47;;;;;;;;;;5050999;28;20051;-69
2022/10/20 13:02:32;;;;;;;14.82;7.90;;;;;;;;;;5052150;28;20040;-70
2022/10/20 13:04:59;;;;;;;14.23;7.75;;;;;;;;;;5054448;28;20090;-68
2022/10/20 13:07:44;;;;;;;16.60;7.57;;;;;;;;;;5051855;28;20643;-68
2022/10/20 13:10:31;;;;;;;17.38;7.82;;;;;;;;;;5056007;28;20048;-69
2022/10/20 13:13:03;;;;;;;15.93;8.07;;;;;;;;;;5056133;28;20445;-68
2022/10/20 13:15:42;;;;;;;15.75;7.45;;;;;;;;;;5056093;27;20114;-69
2022/10/20 13:18:12;;;;;;;31.50;8.65;;;;;;;;;;5057009;28;20051;-69
2022/10/20 13:20:47;;;;;;;17.90;8.60;;;;;;;;;;5055804;27;20048;-71
2022/10/20 13:23:16;;;;;;;20.08;8.27;;;;;;;;;;5055180;28;20108;-70
2022/10/20 13:25:50;;;;;;;21.00;8.55;;;;;;;;;;5070135;28;20044;-70
2022/10/20 13:28:24;;;;;;;23.45;9.20;;;;;;;;;;5059387;28;20048;-70
2022/10/20 13:30:51;;;;;;;34.65;9.85;;;;;;;;;;5057874;28;20588;-68
2022/10/20 13:33:20;;;;;;;23.33;9.50;;;;;;;;;;5056167;28;20471;-70
2022/10/20 13:35:52;;;;;;;20.00;8.68;;;;;;;;;;5054827;28;20557;-69
2022/10/20 13:38:24;;;;;;;25.85;9.15;;;;;;;;;;5055869;28;20188;-67
2022/10/20 13:40:51;;;;;;;20.27;9.25;;;;;;;;;;5059176;28;20127;-68
2022/10/20 13:43:23;;;;;;;28.38;9.32;;;;;;;;;;5055378;28;20464;-68
2022/10/20 13:45:50;;;;;;;25.60;9.55;;;;;;;;;;5054810;28;20048;-68
2022/10/20 13:48:22;;;;;;;16.92;8.43;;;;;;;;;;5054783;28;20131;-69
2022/10/20 13:50:55;;;;;;;24.17;9.68;;;;;;;;;;5055830;28;20033;-70
2022/10/20 13:53:24;;;;;;;25.75;9.38;;;;;;;;;;5054659;28;20405;-69
2022/10/20 13:55:54;;;;;;;26.85;7.95;;;;;;;;;;5055634;28;20650;-69
2022/10/20 13:58:25;;;;;;;27.55;9.25;;;;;;;;;;5053835;28;20072;-68
2022/10/20 14:01:18;;;;;;;39.58;8.73;;;;;;;;;;5054076;28;20146;-69
2022/10/20 14:03:45;;;;;;;29.17;6.65;;;;;;;;;;5054265;28;20813;-68
2022/10/20 14:06:32;;;;;;;32.10;7.85;;;;;;;;;;5052111;28;20142;-69
2022/10/20 14:09:08;;;;;;;19.70;6.82;;;;;;;;;;5055554;28;20070;-70
2022/10/20 14:11:35;;;;;;;13.32;6.05;;;;;;;;;;5054684;28;20088;-69
2022/10/20 14:14:02;;;;;;;23.33;6.53;;;;;;;;;;5086284;27;20084;-70
2022/10/20 14:16:30;;;;;;;16.30;6.80;;;;;;;;;;5052552;28;20036;-70
2022/10/20 14:19:04;;;;;;;16.73;4.53;;;;;;;;;;5065422;28;20131;-69
2022/10/20 14:21:39;;;;;;;57.58;8.38;;;;;;;;;;5056283;28;20047;-69
2022/10/20 14:24:06;;;;;;;50.60;9.48;;;;;;;;;;5056368;28;20504;-69
2022/10/20 14:26:33;;;;;;;51.67;7.28;;;;;;;;;;5084418;27;20674;-69
2022/10/20 14:29:01;;;;;;;25.92;5.47;;;;;;;;;;5056213;28;20028;-70
2022/10/20 14:31:27;;;;;;;8.88;3.72;;;;;;;;;;5053421;28;20040;-70
2022/10/20 14:33:54;;;;;;;29.83;5.32;;;;;;;;;;5055478;28;20041;-68
2022/10/20 14:36:27;;;;;;;15.27;4.00;;;;;;;;;;5053420;28;20043;-71
2022/10/20 14:38:56;;;;;;;12.30;3.78;;;;;;;;;;5057644;28;20198;-70
2022/10/20 14:41:31;;;;;;;10.18;4.00;;;;;;;;;;5056128;28;20040;-68
2022/10/20 14:43:59;;;;;;;28.88;5.47;;;;;;;;;;5053942;28;20041;-68